الصفحة الرئيسية
METAR-TAF:

METAR-TAF

مطار :

مطار تونس قرطاج الدولي

تونس, تونس

دائرة عرض: 36-50N, خط طول: 010-14E, ارتفاع: 3 متر

مراقبة الطقس الحالي

تاريخ ووقت الإصدار 26 دقيقة قبل الساعة 22:30UTC
ريح 12 عقدة من الغرب/الشمال الغربي
درجة الحرارة 24°درجة مئوية
الرطوبة 69%
ضغط 1019 hPa
الرؤية 10 كم أو أكثر
غيوم قليلة على ارتفاع 2600 قدم

METAR: DTTA 242230Z 29012KT 9999 FEW026 24/18 Q1019 NOSIG

زمن: 23:56 (22:56 UTC)

توقعات

تاريخ ووقت الإصدار 5ساعات و 56 دقيقة قبل الساعة 17:00UTC
التوقعات صالحة من24 الساعة 18 UTC إلى 25 الساعة 18 UTC
ريح 15 عقدة من الغرب/الشمال الغربي تتزايد حتى 27 عقدة
الرؤية 10 كم أو أكثر
غيوم متفرقة على ارتفاع 2600 قدم

TAF: DTTA 241700Z 2418/2518 30015G27KT 9999 SCT026

أرصاد الطقس والتوقعات من أكثر من 4000 مطار (تقارير الطقس للمطار METAR والتنبؤ بالطقس بالمطارTAF).

المحطات المتاحة هي النقط الصفراء والحمراء على الخريطة.

حرك المؤشر فوق النقطة لمعرفة اسم المحطة.

ثم انقر لمعرفة أرصاد وتوقعات الطقس.

لتغيير الخارطة: اضغط على الأزرار الخضراء مع رمز الصليب الأسود للتكبير. على الزر الأخضر مع شرطة للتصغير، أو على الأسهم الخضراء للخرائط المجاورة.


METAR-TAF: